createdAt,value
2023-04-15T00:01:53.961Z,10.17
2023-04-15T00:06:57.095Z,10.14
2023-04-15T00:11:59.447Z,10.09
2023-04-15T00:17:03.670Z,10.04
2023-04-15T00:22:05.725Z,10.00
2023-04-15T00:27:09.108Z,9.97
2023-04-15T00:32:11.680Z,9.94
2023-04-15T00:37:15.384Z,9.88
2023-04-15T00:42:18.793Z,9.81
2023-04-15T00:47:22.830Z,9.73
2023-04-15T00:52:26.889Z,9.68
2023-04-15T00:57:28.763Z,9.63
2023-04-15T01:02:32.391Z,9.57
2023-04-15T01:07:35.760Z,9.52
2023-04-15T01:12:39.685Z,9.50
2023-04-15T01:17:44.089Z,9.49
2023-04-15T01:22:46.519Z,9.49
2023-04-15T01:27:48.391Z,9.50
2023-04-15T01:32:51.222Z,9.52
2023-04-15T01:37:59.359Z,9.52
2023-04-15T01:43:03.507Z,9.52
2023-04-15T01:48:06.950Z,9.51
2023-04-15T01:53:09.778Z,9.51
2023-04-15T01:58:13.103Z,9.51
2023-04-15T02:03:16.162Z,9.51
2023-04-15T02:08:19.271Z,9.49
2023-04-15T02:13:22.071Z,9.49
2023-04-15T02:18:26.164Z,9.48
2023-04-15T02:23:31.801Z,9.47
2023-04-15T02:28:34.704Z,9.46
2023-04-15T02:33:37.938Z,9.46
2023-04-15T02:38:42.615Z,9.47
2023-04-15T02:43:47.677Z,9.47
2023-04-15T02:48:54.763Z,9.47
2023-04-15T02:53:58.338Z,9.46
2023-04-15T02:59:00.548Z,9.44
2023-04-15T03:04:04.677Z,9.41
2023-04-15T03:09:07.365Z,9.38
2023-04-15T03:14:09.439Z,9.36
2023-04-15T03:19:12.137Z,9.34
2023-04-15T03:24:16.208Z,9.34
2023-04-15T03:29:18.049Z,9.32
2023-04-15T03:34:20.888Z,9.32
2023-04-15T03:39:24.194Z,9.30
2023-04-15T03:44:28.240Z,9.26
2023-04-15T03:49:31.740Z,9.24
2023-04-15T03:54:34.654Z,9.22
2023-04-15T03:59:36.887Z,9.21
2023-04-15T04:04:39.565Z,9.19
2023-04-15T04:09:45.186Z,9.17
2023-04-15T04:14:50.750Z,9.16
2023-04-15T04:19:53.100Z,9.15
2023-04-15T04:24:56.691Z,9.13
2023-04-15T04:30:00.913Z,9.13
2023-04-15T04:35:04.544Z,9.16
2023-04-15T04:40:10.908Z,9.19
2023-04-15T04:45:13.735Z,9.20
2023-04-15T04:50:17.374Z,9.21
2023-04-15T04:55:19.846Z,9.21
2023-04-15T05:00:23.289Z,9.20
2023-04-15T05:05:27.154Z,9.21
2023-04-15T05:10:29.731Z,9.23
2023-04-15T05:15:34.994Z,9.26
2023-04-15T05:20:37.714Z,9.31
2023-04-15T05:25:41.534Z,9.36
2023-04-15T05:30:44.312Z,9.39
2023-04-15T05:35:48.063Z,9.42
2023-04-15T05:40:50.411Z,9.42
2023-04-15T05:45:54.346Z,9.42
2023-04-15T05:50:57.318Z,9.44
2023-04-15T05:56:01.489Z,9.49
2023-04-15T06:01:04.347Z,9.53
2023-04-15T06:06:10.054Z,9.63
2023-04-15T06:11:14.506Z,9.74
2023-04-15T06:16:17.798Z,9.79
2023-04-15T06:21:23.968Z,9.86
2023-04-15T06:26:28.511Z,9.94
2023-04-15T06:31:31.915Z,10.00
2023-04-15T06:36:34.251Z,10.01
2023-04-15T06:41:40.969Z,10.02
2023-04-15T06:46:44.534Z,9.99
2023-04-15T06:51:47.949Z,9.94
2023-04-15T06:56:51.235Z,9.90
2023-04-15T07:01:54.697Z,9.90
2023-04-15T07:06:57.194Z,9.92
2023-04-15T07:11:59.862Z,9.93
2023-04-15T07:17:02.332Z,9.92
2023-04-15T07:22:04.606Z,9.93
2023-04-15T07:27:07.946Z,9.96
2023-04-15T07:32:11.549Z,9.96
2023-04-15T07:37:16.001Z,9.93
2023-04-15T07:42:20.064Z,9.91
2023-04-15T07:47:23.078Z,9.89
2023-04-15T07:52:24.730Z,9.90
2023-04-15T07:57:27.784Z,9.93
2023-04-15T08:02:30.453Z,9.94
2023-04-15T08:07:33.763Z,9.92
2023-04-15T08:12:36.676Z,9.95
2023-04-15T08:17:38.713Z,10.01
2023-04-15T08:22:41.638Z,10.08
2023-04-15T08:27:46.183Z,10.17
2023-04-15T08:32:51.830Z,10.24
2023-04-15T08:37:54.638Z,10.28
2023-04-15T08:43:00.122Z,10.28
2023-04-15T08:48:06.169Z,10.25
2023-04-15T08:53:11.133Z,10.22
2023-04-15T08:58:15.864Z,10.21
2023-04-15T09:03:19.725Z,10.22
2023-04-15T09:08:24.116Z,10.24
2023-04-15T09:13:26.715Z,10.30
2023-04-15T09:18:34.465Z,10.44
2023-04-15T09:23:40.165Z,10.69
2023-04-15T09:28:46.811Z,10.90
2023-04-15T09:33:56.952Z,11.03
2023-04-15T09:39:01.055Z,11.16
2023-04-15T09:44:04.313Z,11.25
2023-04-15T09:49:11.999Z,11.35
2023-04-15T09:54:22.132Z,11.44
2023-04-15T09:59:25.887Z,11.49
2023-04-15T10:04:32.909Z,11.52
2023-04-15T10:09:38.476Z,11.61
2023-04-15T10:14:44.019Z,11.67
2023-04-15T10:19:48.562Z,11.79
2023-04-15T10:24:52.501Z,11.86
2023-04-15T10:29:58.622Z,11.98
2023-04-15T10:35:02.443Z,12.08
2023-04-15T10:40:27.698Z,12.13
2023-04-15T10:45:39.825Z,12.15
2023-04-15T10:50:58.102Z,11.93
2023-04-15T10:56:02.350Z,11.84
2023-04-15T11:01:05.888Z,12.06
2023-04-15T11:06:09.963Z,12.29
2023-04-15T11:11:16.695Z,12.32
2023-04-15T11:16:20.295Z,12.28
2023-04-15T11:21:27.977Z,12.36
2023-04-15T11:26:32.328Z,12.48
2023-04-15T11:31:37.902Z,12.61
2023-04-15T11:36:44.034Z,12.49
2023-04-15T11:41:47.264Z,12.20
2023-04-15T11:46:51.491Z,11.82
2023-04-15T11:51:55.385Z,11.54
2023-04-15T11:57:00.056Z,11.32
2023-04-15T12:02:13.004Z,11.31
2023-04-15T12:07:17.373Z,11.41
2023-04-15T12:12:20.300Z,11.53
2023-04-15T12:17:25.334Z,11.52
2023-04-15T12:22:28.051Z,11.45
2023-04-15T12:27:31.887Z,11.37
2023-04-15T12:32:37.041Z,11.26
2023-04-15T12:37:39.168Z,11.18
2023-04-15T12:42:41.065Z,11.20
2023-04-15T12:47:43.973Z,11.26
2023-04-15T12:52:47.188Z,11.33
2023-04-15T12:57:49.527Z,11.46
2023-04-15T13:02:51.693Z,11.64
2023-04-15T13:07:54.066Z,11.74
2023-04-15T13:12:56.682Z,11.87
2023-04-15T13:17:59.332Z,11.96
2023-04-15T13:23:17.883Z,11.92
2023-04-15T13:28:20.192Z,11.92
2023-04-15T13:33:23.186Z,11.89
2023-04-15T13:38:25.637Z,11.91
2023-04-15T13:43:28.384Z,11.98
2023-04-15T13:48:30.435Z,11.97
2023-04-15T13:53:37.815Z,11.91
2023-04-15T13:58:41.500Z,11.88
2023-04-15T14:03:44.165Z,11.89
2023-04-15T14:08:46.430Z,11.77
2023-04-15T14:13:49.409Z,11.57
2023-04-15T14:18:52.376Z,11.42
2023-04-15T14:23:54.850Z,11.39
2023-04-15T14:28:56.987Z,11.36
2023-04-15T14:33:59.215Z,11.32
2023-04-15T14:39:04.947Z,11.24
2023-04-15T14:44:11.497Z,11.14
2023-04-15T14:49:14.579Z,11.06
2023-04-15T14:54:17.601Z,11.02
2023-04-15T14:59:19.794Z,10.98
2023-04-15T15:04:22.913Z,10.90
2023-04-15T15:09:26.713Z,10.83
2023-04-15T15:14:31.498Z,10.79
2023-04-15T15:19:34.803Z,10.75
2023-04-15T15:24:38.876Z,10.75
2023-04-15T15:29:43.020Z,10.73
2023-04-15T15:34:46.177Z,10.72
2023-04-15T15:39:53.169Z,10.66
2023-04-15T15:44:56.363Z,10.57
2023-04-15T15:50:02.604Z,10.53
2023-04-15T15:55:07.849Z,10.44
2023-04-15T16:00:12.836Z,10.34
2023-04-15T16:05:15.908Z,10.27
2023-04-15T16:10:18.337Z,10.20
2023-04-15T16:15:20.571Z,10.17
2023-04-15T16:20:24.566Z,10.14
2023-04-15T16:25:26.809Z,10.08
2023-04-15T16:30:29.171Z,10.01
2023-04-15T16:35:32.759Z,9.94
2023-04-15T16:40:37.418Z,9.90
2023-04-15T16:45:40.146Z,9.89
2023-04-15T16:50:46.397Z,9.84
2023-04-15T16:55:49.269Z,9.76
2023-04-15T17:00:52.876Z,9.71
2023-04-15T17:05:55.558Z,9.71
2023-04-15T17:10:57.845Z,9.70
2023-04-15T17:16:01.894Z,9.67
2023-04-15T17:21:06.095Z,9.65
2023-04-15T17:26:08.923Z,9.63
2023-04-15T17:31:11.789Z,9.58
2023-04-15T17:36:15.245Z,9.54
2023-04-15T17:41:18.540Z,9.52
2023-04-15T17:46:23.342Z,9.46
2023-04-15T17:51:26.100Z,9.40
2023-04-15T17:56:29.329Z,9.33
2023-04-15T18:01:31.641Z,9.25
2023-04-15T18:06:35.303Z,9.18
2023-04-15T18:11:40.345Z,9.11
2023-04-15T18:16:43.726Z,9.05
2023-04-15T18:21:49.317Z,9.03
2023-04-15T18:26:52.923Z,8.96
2023-04-15T18:31:58.865Z,8.88
2023-04-15T18:37:01.985Z,8.87
2023-04-15T18:42:04.490Z,8.85
2023-04-15T18:47:07.531Z,8.79
2023-04-15T18:52:11.448Z,8.75
2023-04-15T18:57:13.924Z,8.75
2023-04-15T19:02:27.703Z,8.77
2023-04-15T19:07:31.025Z,8.81
2023-04-15T19:12:33.759Z,8.82
2023-04-15T19:17:35.969Z,8.83
2023-04-15T19:22:38.992Z,8.79
2023-04-15T19:27:41.245Z,8.78
2023-04-15T19:32:43.573Z,8.77
2023-04-15T19:37:48.583Z,8.77
2023-04-15T19:42:51.475Z,8.79
2023-04-15T19:47:54.680Z,8.80
2023-04-15T19:52:57.022Z,8.78
2023-04-15T19:57:59.645Z,8.78
2023-04-15T20:03:01.735Z,8.81
2023-04-15T20:08:04.165Z,8.80
2023-04-15T20:13:06.240Z,8.75
2023-04-15T20:18:08.699Z,8.69
2023-04-15T20:23:11.176Z,8.64
2023-04-15T20:28:15.552Z,8.58
2023-04-15T20:33:17.489Z,8.54
2023-04-15T20:38:21.560Z,8.51
2023-04-15T20:43:27.428Z,8.46
2023-04-15T20:48:31.467Z,8.44
2023-04-15T20:53:35.197Z,8.40
2023-04-15T20:58:39.337Z,8.35
2023-04-15T21:03:42.991Z,8.31
2023-04-15T21:08:46.203Z,8.31
2023-04-15T21:13:51.064Z,8.33
2023-04-15T21:18:54.750Z,8.33
2023-04-15T21:24:00.938Z,8.35
2023-04-15T21:29:03.610Z,8.35
2023-04-15T21:34:07.924Z,8.36
2023-04-15T21:39:12.219Z,8.38
2023-04-15T21:44:15.926Z,8.36
2023-04-15T21:49:20.747Z,8.35
2023-04-15T21:54:24.432Z,8.36
2023-04-15T21:59:28.978Z,8.36
2023-04-15T22:04:32.042Z,8.37
2023-04-15T22:09:35.305Z,8.38
2023-04-15T22:14:39.401Z,8.40
2023-04-15T22:19:42.699Z,8.43
2023-04-15T22:24:45.843Z,8.45
2023-04-15T22:29:48.198Z,8.46
2023-04-15T22:34:51.647Z,8.45
2023-04-15T22:39:56.889Z,8.44
2023-04-15T22:44:59.822Z,8.43
2023-04-15T22:50:04.514Z,8.39
2023-04-15T22:55:09.192Z,8.35
2023-04-15T23:00:12.373Z,8.27
2023-04-15T23:05:15.430Z,8.19
2023-04-15T23:10:19.666Z,8.10
2023-04-15T23:15:24.967Z,8.03
2023-04-15T23:20:28.112Z,7.96
2023-04-15T23:25:30.065Z,7.90
2023-04-15T23:30:37.010Z,7.82
2023-04-15T23:35:39.984Z,7.73
2023-04-15T23:40:43.467Z,7.63
2023-04-15T23:45:46.318Z,7.55
2023-04-15T23:50:50.534Z,7.47
2023-04-15T23:55:54.383Z,7.36
